sensor_id;sensor_type;location;lat;lon;timestamp;pressure;altitude;pressure_sealevel;temperature;humidity
37206;BME280;23099;42.636;23.198;2023-11-21T00:00:41;91769.59;;;3.14;97.89
37206;BME280;23099;42.636;23.198;2023-11-21T00:03:09;91768.81;;;3.14;98.36
37206;BME280;23099;42.636;23.198;2023-11-21T00:05:36;91768.81;;;3.14;99.54
37206;BME280;23099;42.636;23.198;2023-11-21T00:08:03;91760.91;;;3.14;100.00
37206;BME280;23099;42.636;23.198;2023-11-21T00:10:30;91763.09;;;3.12;100.00
37206;BME280;23099;42.636;23.198;2023-11-21T00:12:57;91764.66;;;3.04;100.00
37206;BME280;23099;42.636;23.198;2023-11-21T00:15:24;91762.81;;;3.05;100.00
37206;BME280;23099;42.636;23.198;2023-11-21T00:17:51;91757.09;;;3.03;100.00
37206;BME280;23099;42.636;23.198;2023-11-21T00:20:21;91764.03;;;3.07;100.00
37206;BME280;23099;42.636;23.198;2023-11-21T00:22:47;91763.25;;;3.07;100.00
37206;BME280;23099;42.636;23.198;2023-11-21T00:25:14;91763.78;;;3.00;100.00
37206;BME280;23099;42.636;23.198;2023-11-21T00:27:42;91763.78;;;3.00;100.00
37206;BME280;23099;42.636;23.198;2023-11-21T00:30:10;91755.03;;;3.08;100.00
37206;BME280;23099;42.636;23.198;2023-11-21T00:32:37;91743.13;;;3.02;100.00
37206;BME280;23099;42.636;23.198;2023-11-21T00:35:05;91758.91;;;3.11;100.00
37206;BME280;23099;42.636;23.198;2023-11-21T00:37:33;91761.00;;;2.97;99.13
37206;BME280;23099;42.636;23.198;2023-11-21T00:40:00;91761.31;;;2.95;99.70
37206;BME280;23099;42.636;23.198;2023-11-21T00:42:30;91777.63;;;2.97;100.00
37206;BME280;23099;42.636;23.198;2023-11-21T00:44:57;91770.00;;;2.96;100.00
37206;BME280;23099;42.636;23.198;2023-11-21T00:47:23;91771.25;;;2.98;100.00
37206;BME280;23099;42.636;23.198;2023-11-21T00:49:50;91767.06;;;2.97;100.00
37206;BME280;23099;42.636;23.198;2023-11-21T00:52:17;91769.53;;;3.02;100.00
37206;BME280;23099;42.636;23.198;2023-11-21T00:54:45;91767.31;;;3.04;100.00
37206;BME280;23099;42.636;23.198;2023-11-21T00:57:13;91758.19;;;3.02;100.00
37206;BME280;23099;42.636;23.198;2023-11-21T00:59:40;91760.84;;;2.93;99.66
37206;BME280;23099;42.636;23.198;2023-11-21T01:02:06;91761.38;;;2.87;97.55
37206;BME280;23099;42.636;23.198;2023-11-21T01:04:36;91753.03;;;2.76;99.33
37206;BME280;23099;42.636;23.198;2023-11-21T01:07:03;91744.78;;;2.77;100.00
37206;BME280;23099;42.636;23.198;2023-11-21T01:09:30;91739.34;;;2.82;100.00
37206;BME280;23099;42.636;23.198;2023-11-21T01:11:59;91739.16;;;2.88;100.00
37206;BME280;23099;42.636;23.198;2023-11-21T01:14:26;91750.97;;;2.81;100.00
37206;BME280;23099;42.636;23.198;2023-11-21T01:16:53;91738.25;;;2.83;100.00
37206;BME280;23099;42.636;23.198;2023-11-21T01:19:19;91748.03;;;2.83;100.00
37206;BME280;23099;42.636;23.198;2023-11-21T01:21:46;91752.25;;;2.75;100.00
37206;BME280;23099;42.636;23.198;2023-11-21T01:24:13;91746.16;;;2.83;100.00
37206;BME280;23099;42.636;23.198;2023-11-21T01:26:40;91752.69;;;2.77;100.00
37206;BME280;23099;42.636;23.198;2023-11-21T01:29:08;91750.75;;;2.66;100.00
37206;BME280;23099;42.636;23.198;2023-11-21T01:31:34;91756.69;;;2.54;98.33
37206;BME280;23099;42.636;23.198;2023-11-21T01:34:01;91738.13;;;2.42;98.75
37206;BME280;23099;42.636;23.198;2023-11-21T01:36:30;91738.28;;;2.37;98.94
37206;BME280;23099;42.636;23.198;2023-11-21T01:38:58;91746.66;;;2.39;99.87
37206;BME280;23099;42.636;23.198;2023-11-21T01:41:25;91744.69;;;2.27;100.00
37206;BME280;23099;42.636;23.198;2023-11-21T01:43:53;91745.78;;;2.26;100.00
37206;BME280;23099;42.636;23.198;2023-11-21T01:46:22;91744.53;;;2.24;100.00
37206;BME280;23099;42.636;23.198;2023-11-21T01:48:49;91727.94;;;2.23;100.00
37206;BME280;23099;42.636;23.198;2023-11-21T01:51:16;91719.41;;;2.26;100.00
37206;BME280;23099;42.636;23.198;2023-11-21T01:53:44;91717.56;;;2.27;100.00
37206;BME280;23099;42.636;23.198;2023-11-21T01:56:12;91719.25;;;2.23;100.00
37206;BME280;23099;42.636;23.198;2023-11-21T01:58:39;91731.66;;;2.31;100.00
37206;BME280;23099;42.636;23.198;2023-11-21T02:01:06;91734.41;;;2.34;100.00
37206;BME280;23099;42.636;23.198;2023-11-21T02:03:34;91733.84;;;2.29;100.00
37206;BME280;23099;42.636;23.198;2023-11-21T02:06:01;91736.59;;;2.32;100.00
37206;BME280;23099;42.636;23.198;2023-11-21T02:08:28;91732.88;;;2.33;100.00
37206;BME280;23099;42.636;23.198;2023-11-21T02:10:54;91732.84;;;2.42;100.00
37206;BME280;23099;42.636;23.198;2023-11-21T02:13:23;91729.13;;;2.43;100.00
37206;BME280;23099;42.636;23.198;2023-11-21T02:15:49;91734.53;;;2.46;100.00
37206;BME280;23099;42.636;23.198;2023-11-21T02:18:17;91720.56;;;2.46;100.00
37206;BME280;23099;42.636;23.198;2023-11-21T02:20:45;91726.50;;;2.43;100.00
37206;BME280;23099;42.636;23.198;2023-11-21T02:23:13;91726.66;;;2.38;100.00
37206;BME280;23099;42.636;23.198;2023-11-21T02:25:41;91723.25;;;2.37;100.00
37206;BME280;23099;42.636;23.198;2023-11-21T02:28:08;91717.97;;;2.37;100.00
37206;BME280;23099;42.636;23.198;2023-11-21T02:30:38;91715.94;;;2.43;100.00
37206;BME280;23099;42.636;23.198;2023-11-21T02:33:04;91715.28;;;2.46;100.00
37206;BME280;23099;42.636;23.198;2023-11-21T02:35:32;91709.75;;;2.39;100.00
37206;BME280;23099;42.636;23.198;2023-11-21T02:38:00;91726.75;;;2.50;100.00
37206;BME280;23099;42.636;23.198;2023-11-21T02:40:28;91715.16;;;2.42;100.00
37206;BME280;23099;42.636;23.198;2023-11-21T02:42:55;91717.28;;;2.49;100.00
37206;BME280;23099;42.636;23.198;2023-11-21T02:45:24;91723.03;;;2.51;100.00
37206;BME280;23099;42.636;23.198;2023-11-21T02:47:51;91722.00;;;2.43;100.00
37206;BME280;23099;42.636;23.198;2023-11-21T02:50:22;91721.47;;;2.50;100.00
37206;BME280;23099;42.636;23.198;2023-11-21T02:52:48;91722.09;;;2.47;100.00
37206;BME280;23099;42.636;23.198;2023-11-21T02:55:15;91705.72;;;2.33;100.00
37206;BME280;23099;42.636;23.198;2023-11-21T02:57:43;91716.72;;;2.43;100.00
37206;BME280;23099;42.636;23.198;2023-11-21T03:00:10;91711.44;;;2.43;100.00
37206;BME280;23099;42.636;23.198;2023-11-21T03:02:38;91704.00;;;2.37;100.00
37206;BME280;23099;42.636;23.198;2023-11-21T03:05:06;91714.09;;;2.35;100.00
37206;BME280;23099;42.636;23.198;2023-11-21T03:07:34;91705.25;;;2.39;100.00
37206;BME280;23099;42.636;23.198;2023-11-21T03:10:00;91716.25;;;2.41;100.00
37206;BME280;23099;42.636;23.198;2023-11-21T03:12:27;91709.75;;;2.39;100.00
37206;BME280;23099;42.636;23.198;2023-11-21T03:14:55;91712.47;;;2.51;100.00
37206;BME280;23099;42.636;23.198;2023-11-21T03:17:22;91720.84;;;2.53;100.00
37206;BME280;23099;42.636;23.198;2023-11-21T03:19:49;91722.41;;;2.54;100.00
37206;BME280;23099;42.636;23.198;2023-11-21T03:22:17;91730.16;;;2.59;100.00
37206;BME280;23099;42.636;23.198;2023-11-21T03:24:44;91735.84;;;2.61;100.00
37206;BME280;23099;42.636;23.198;2023-11-21T03:27:11;91727.78;;;2.66;100.00
37206;BME280;23099;42.636;23.198;2023-11-21T03:29:38;91728.88;;;2.65;100.00
37206;BME280;23099;42.636;23.198;2023-11-21T03:32:07;91728.38;;;2.72;100.00
37206;BME280;23099;42.636;23.198;2023-11-21T03:34:34;91735.53;;;2.71;100.00
37206;BME280;23099;42.636;23.198;2023-11-21T03:37:00;91730.16;;;2.59;100.00
37206;BME280;23099;42.636;23.198;2023-11-21T03:39:27;91722.56;;;2.58;100.00
37206;BME280;23099;42.636;23.198;2023-11-21T03:41:54;91715.56;;;2.53;100.00
37206;BME280;23099;42.636;23.198;2023-11-21T03:44:21;91710.13;;;2.58;100.00
37206;BME280;23099;42.636;23.198;2023-11-21T03:46:48;91708.75;;;2.52;100.00
37206;BME280;23099;42.636;23.198;2023-11-21T03:49:16;91704.25;;;2.53;100.00
37206;BME280;23099;42.636;23.198;2023-11-21T03:51:42;91704.53;;;2.60;100.00
37206;BME280;23099;42.636;23.198;2023-11-21T03:54:09;91702.47;;;2.65;100.00
37206;BME280;23099;42.636;23.198;2023-11-21T03:56:36;91693.00;;;2.64;100.00
37206;BME280;23099;42.636;23.198;2023-11-21T03:59:03;91686.16;;;2.72;100.00
37206;BME280;23099;42.636;23.198;2023-11-21T04:01:29;91684.22;;;2.81;100.00
37206;BME280;23099;42.636;23.198;2023-11-21T04:03:56;91681.53;;;2.90;100.00
37206;BME280;23099;42.636;23.198;2023-11-21T04:06:24;91681.41;;;2.86;100.00
37206;BME280;23099;42.636;23.198;2023-11-21T04:08:51;91684.69;;;2.83;100.00
37206;BME280;23099;42.636;23.198;2023-11-21T04:11:17;91681.13;;;2.79;100.00
37206;BME280;23099;42.636;23.198;2023-11-21T04:13:44;91680.69;;;2.77;100.00
37206;BME280;23099;42.636;23.198;2023-11-21T04:16:12;91685.19;;;2.76;100.00
37206;BME280;23099;42.636;23.198;2023-11-21T04:18:39;91692.63;;;2.74;100.00
37206;BME280;23099;42.636;23.198;2023-11-21T04:21:06;91679.19;;;2.67;100.00
37206;BME280;23099;42.636;23.198;2023-11-21T04:23:35;91689.88;;;2.71;100.00
37206;BME280;23099;42.636;23.198;2023-11-21T04:26:02;91688.06;;;2.63;100.00
37206;BME280;23099;42.636;23.198;2023-11-21T04:28:29;91687.16;;;2.59;100.00
37206;BME280;23099;42.636;23.198;2023-11-21T04:30:55;91699.28;;;2.51;100.00
37206;BME280;23099;42.636;23.198;2023-11-21T04:33:22;91697.75;;;2.50;100.00
37206;BME280;23099;42.636;23.198;2023-11-21T04:35:49;91696.94;;;2.58;100.00
37206;BME280;23099;42.636;23.198;2023-11-21T04:38:16;91684.84;;;2.57;100.00
37206;BME280;23099;42.636;23.198;2023-11-21T04:40:44;91664.06;;;2.56;100.00
37206;BME280;23099;42.636;23.198;2023-11-21T04:43:09;91691.97;;;2.57;100.00
37206;BME280;23099;42.636;23.198;2023-11-21T04:45:36;91677.28;;;2.47;100.00
37206;BME280;23099;42.636;23.198;2023-11-21T04:48:04;91690.28;;;2.52;100.00
37206;BME280;23099;42.636;23.198;2023-11-21T04:50:32;91694.19;;;2.46;100.00
37206;BME280;23099;42.636;23.198;2023-11-21T04:52:58;91694.06;;;2.42;100.00
37206;BME280;23099;42.636;23.198;2023-11-21T04:55:25;91691.75;;;2.41;100.00
37206;BME280;23099;42.636;23.198;2023-11-21T04:57:54;91685.38;;;2.42;100.00
37206;BME280;23099;42.636;23.198;2023-11-21T05:00:21;91693.91;;;2.39;100.00
37206;BME280;23099;42.636;23.198;2023-11-21T05:02:48;91694.84;;;2.34;100.00
37206;BME280;23099;42.636;23.198;2023-11-21T05:05:15;91692.06;;;2.39;100.00
37206;BME280;23099;42.636;23.198;2023-11-21T05:07:41;91688.78;;;2.42;100.00
37206;BME280;23099;42.636;23.198;2023-11-21T05:10:08;91671.28;;;2.38;100.00
37206;BME280;23099;42.636;23.198;2023-11-21T05:12:37;91681.91;;;2.50;100.00
37206;BME280;23099;42.636;23.198;2023-11-21T05:15:06;91688.28;;;2.49;100.00
37206;BME280;23099;42.636;23.198;2023-11-21T05:17:35;91692.78;;;2.48;100.00
37206;BME280;23099;42.636;23.198;2023-11-21T05:20:02;91685.31;;;2.51;100.00
37206;BME280;23099;42.636;23.198;2023-11-21T05:22:33;91691.22;;;2.47;100.00
37206;BME280;23099;42.636;23.198;2023-11-21T05:25:00;91696.81;;;2.46;100.00
37206;BME280;23099;42.636;23.198;2023-11-21T05:27:28;91709.13;;;2.42;100.00
37206;BME280;23099;42.636;23.198;2023-11-21T05:29:56;91708.97;;;2.38;100.00
37206;BME280;23099;42.636;23.198;2023-11-21T05:32:24;91706.97;;;2.35;100.00
37206;BME280;23099;42.636;23.198;2023-11-21T05:34:51;91696.00;;;2.25;100.00
37206;BME280;23099;42.636;23.198;2023-11-21T05:37:18;91717.66;;;2.39;100.00
37206;BME280;23099;42.636;23.198;2023-11-21T05:39:44;91713.00;;;2.44;100.00
37206;BME280;23099;42.636;23.198;2023-11-21T05:42:12;91717.03;;;2.42;100.00
37206;BME280;23099;42.636;23.198;2023-11-21T05:44:41;91718.38;;;2.48;100.00
37206;BME280;23099;42.636;23.198;2023-11-21T05:47:08;91709.88;;;2.42;100.00
37206;BME280;23099;42.636;23.198;2023-11-21T05:49:36;91702.47;;;2.36;100.00
37206;BME280;23099;42.636;23.198;2023-11-21T05:52:04;91704.16;;;2.40;100.00
37206;BME280;23099;42.636;23.198;2023-11-21T05:54:31;91703.06;;;2.41;100.00
37206;BME280;23099;42.636;23.198;2023-11-21T05:56:57;91699.66;;;2.41;100.00
37206;BME280;23099;42.636;23.198;2023-11-21T05:59:24;91700.34;;;2.29;100.00
37206;BME280;23099;42.636;23.198;2023-11-21T06:01:51;91695.06;;;2.29;100.00
37206;BME280;23099;42.636;23.198;2023-11-21T06:04:19;91699.81;;;2.36;100.00
37206;BME280;23099;42.636;23.198;2023-11-21T06:06:51;91697.34;;;2.39;100.00
37206;BME280;23099;42.636;23.198;2023-11-21T06:09:18;91698.88;;;2.40;100.00
37206;BME280;23099;42.636;23.198;2023-11-21T06:11:44;91698.38;;;2.47;100.00
37206;BME280;23099;42.636;23.198;2023-11-21T06:14:11;91704.84;;;2.58;100.00
37206;BME280;23099;42.636;23.198;2023-11-21T06:16:38;91705.44;;;2.64;100.00
37206;BME280;23099;42.636;23.198;2023-11-21T06:19:05;91704.94;;;2.70;100.00
37206;BME280;23099;42.636;23.198;2023-11-21T06:21:31;91712.41;;;2.68;100.00
37206;BME280;23099;42.636;23.198;2023-11-21T06:24:00;91701.53;;;2.70;100.00
37206;BME280;23099;42.636;23.198;2023-11-21T06:26:27;91719.03;;;2.74;100.00
37206;BME280;23099;42.636;23.198;2023-11-21T06:28:54;91707.22;;;2.80;100.00
37206;BME280;23099;42.636;23.198;2023-11-21T06:31:22;91712.16;;;2.82;100.00
37206;BME280;23099;42.636;23.198;2023-11-21T06:33:49;91706.81;;;2.70;100.00
37206;BME280;23099;42.636;23.198;2023-11-21T06:36:17;91717.16;;;2.75;100.00
37206;BME280;23099;42.636;23.198;2023-11-21T06:38:43;91715.06;;;2.89;100.00
37206;BME280;23099;42.636;23.198;2023-11-21T06:41:12;91718.13;;;3.00;100.00
37206;BME280;23099;42.636;23.198;2023-11-21T06:43:40;91722.56;;;3.08;100.00
37206;BME280;23099;42.636;23.198;2023-11-21T06:46:10;91712.16;;;3.11;100.00
37206;BME280;23099;42.636;23.198;2023-11-21T06:48:38;91729.47;;;3.21;100.00
37206;BME280;23099;42.636;23.198;2023-11-21T06:51:05;91727.25;;;3.32;100.00
37206;BME280;23099;42.636;23.198;2023-11-21T06:53:32;91723.22;;;3.46;100.00
37206;BME280;23099;42.636;23.198;2023-11-21T06:55:59;91710.78;;;3.47;100.00
37206;BME280;23099;42.636;23.198;2023-11-21T06:58:27;91729.03;;;3.61;100.00
37206;BME280;23099;42.636;23.198;2023-11-21T07:00:54;91728.69;;;3.62;100.00
37206;BME280;23099;42.636;23.198;2023-11-21T07:03:20;91720.34;;;3.60;100.00
37206;BME280;23099;42.636;23.198;2023-11-21T07:05:47;91726.44;;;3.73;100.00
37206;BME280;23099;42.636;23.198;2023-11-21T07:08:14;91727.78;;;3.79;100.00
37206;BME280;23099;42.636;23.198;2023-11-21T07:10:41;91717.66;;;3.81;100.00
37206;BME280;23099;42.636;23.198;2023-11-21T07:13:07;91720.09;;;3.86;100.00
37206;BME280;23099;42.636;23.198;2023-11-21T07:15:39;91716.28;;;3.96;100.00
37206;BME280;23099;42.636;23.198;2023-11-21T07:18:05;91721.03;;;4.02;100.00
37206;BME280;23099;42.636;23.198;2023-11-21T07:20:34;91723.00;;;4.05;100.00
37206;BME280;23099;42.636;23.198;2023-11-21T07:23:01;91718.06;;;4.04;100.00
37206;BME280;23099;42.636;23.198;2023-11-21T07:25:29;91724.59;;;4.18;100.00
37206;BME280;23099;42.636;23.198;2023-11-21T07:27:55;91719.22;;;4.27;100.00
37206;BME280;23099;42.636;23.198;2023-11-21T07:30:22;91726.97;;;4.32;100.00
37206;BME280;23099;42.636;23.198;2023-11-21T07:32:50;91719.81;;;4.45;100.00
37206;BME280;23099;42.636;23.198;2023-11-21T07:35:17;91719.59;;;4.62;100.00
37206;BME280;23099;42.636;23.198;2023-11-21T07:37:43;91725.00;;;4.66;100.00
37206;BME280;23099;42.636;23.198;2023-11-21T07:40:12;91730.28;;;4.78;100.00
37206;BME280;23099;42.636;23.198;2023-11-21T07:42:39;91720.06;;;4.88;100.00
37206;BME280;23099;42.636;23.198;2023-11-21T07:45:08;91728.97;;;4.96;100.00
37206;BME280;23099;42.636;23.198;2023-11-21T07:47:35;91723.91;;;5.15;100.00
37206;BME280;23099;42.636;23.198;2023-11-21T07:50:04;91720.44;;;5.27;100.00
37206;BME280;23099;42.636;23.198;2023-11-21T07:52:32;91712.69;;;5.46;100.00
37206;BME280;23099;42.636;23.198;2023-11-21T07:54:59;91710.56;;;5.52;100.00
37206;BME280;23099;42.636;23.198;2023-11-21T07:57:27;91706.25;;;5.59;99.60
37206;BME280;23099;42.636;23.198;2023-11-21T07:59:53;91706.72;;;5.77;99.02
37206;BME280;23099;42.636;23.198;2023-11-21T08:02:20;91703.41;;;5.80;98.34
37206;BME280;23099;42.636;23.198;2023-11-21T08:04:47;91703.50;;;5.84;98.54
37206;BME280;23099;42.636;23.198;2023-11-21T08:07:17;91705.34;;;5.95;98.33
37206;BME280;23099;42.636;23.198;2023-11-21T08:09:44;91704.44;;;6.03;99.06
37206;BME280;23099;42.636;23.198;2023-11-21T08:12:12;91697.69;;;6.06;97.96
37206;BME280;23099;42.636;23.198;2023-11-21T08:14:40;91704.19;;;6.09;97.81
37206;BME280;23099;42.636;23.198;2023-11-21T08:17:06;91704.56;;;6.23;98.00
37206;BME280;23099;42.636;23.198;2023-11-21T08:19:35;91705.34;;;6.39;97.08
37206;BME280;23099;42.636;23.198;2023-11-21T08:22:02;91702.56;;;6.48;95.08
37206;BME280;23099;42.636;23.198;2023-11-21T08:24:30;91703.06;;;6.53;94.76
37206;BME280;23099;42.636;23.198;2023-11-21T08:26:57;91699.72;;;6.56;91.19
37206;BME280;23099;42.636;23.198;2023-11-21T08:29:24;91703.91;;;6.57;91.18
37206;BME280;23099;42.636;23.198;2023-11-21T08:31:50;91700.72;;;6.52;92.81
37206;BME280;23099;42.636;23.198;2023-11-21T08:34:17;91690.63;;;6.57;91.66
37206;BME280;23099;42.636;23.198;2023-11-21T08:36:44;91687.81;;;6.66;91.62
37206;BME280;23099;42.636;23.198;2023-11-21T08:39:10;91687.91;;;6.69;92.86
37206;BME280;23099;42.636;23.198;2023-11-21T08:41:39;91686.88;;;6.90;92.10
37206;BME280;23099;42.636;23.198;2023-11-21T08:44:06;91690.88;;;6.99;90.64
37206;BME280;23099;42.636;23.198;2023-11-21T08:46:33;91696.59;;;7.17;90.36
37206;BME280;23099;42.636;23.198;2023-11-21T08:49:03;91686.19;;;7.28;89.11
37206;BME280;23099;42.636;23.198;2023-11-21T08:51:31;91682.03;;;7.46;89.60
37206;BME280;23099;42.636;23.198;2023-11-21T08:53:58;91674.41;;;7.64;87.71
37206;BME280;23099;42.636;23.198;2023-11-21T08:56:26;91659.50;;;7.78;90.09
37206;BME280;23099;42.636;23.198;2023-11-21T08:58:54;91656.63;;;8.06;89.25
37206;BME280;23099;42.636;23.198;2023-11-21T09:01:22;91648.66;;;8.29;87.84
37206;BME280;23099;42.636;23.198;2023-11-21T09:03:50;91641.28;;;8.42;86.22
37206;BME280;23099;42.636;23.198;2023-11-21T09:06:17;91642.94;;;8.50;84.25
37206;BME280;23099;42.636;23.198;2023-11-21T09:08:43;91637.75;;;8.34;84.38
37206;BME280;23099;42.636;23.198;2023-11-21T09:11:10;91620.41;;;8.25;85.78
37206;BME280;23099;42.636;23.198;2023-11-21T09:13:37;91630.34;;;8.28;85.75
37206;BME280;23099;42.636;23.198;2023-11-21T09:16:05;91627.34;;;8.29;85.07
37206;BME280;23099;42.636;23.198;2023-11-21T09:18:32;91615.00;;;7.98;85.79
37206;BME280;23099;42.636;23.198;2023-11-21T09:20:59;91602.75;;;7.94;85.42
37206;BME280;23099;42.636;23.198;2023-11-21T09:23:26;91603.31;;;8.03;85.29
37206;BME280;23099;42.636;23.198;2023-11-21T09:25:52;91597.69;;;8.08;85.42
37206;BME280;23099;42.636;23.198;2023-11-21T09:28:22;91595.44;;;8.10;84.52
37206;BME280;23099;42.636;23.198;2023-11-21T09:30:49;91583.09;;;8.21;83.52
37206;BME280;23099;42.636;23.198;2023-11-21T09:33:17;91583.38;;;8.35;85.72
37206;BME280;23099;42.636;23.198;2023-11-21T09:35:43;91560.69;;;8.22;85.39
37206;BME280;23099;42.636;23.198;2023-11-21T09:38:10;91571.75;;;8.47;83.33
37206;BME280;23099;42.636;23.198;2023-11-21T09:40:39;91559.34;;;8.58;82.36
37206;BME280;23099;42.636;23.198;2023-11-21T09:43:06;91557.38;;;8.78;83.06
37206;BME280;23099;42.636;23.198;2023-11-21T09:45:35;91561.78;;;8.93;82.65
37206;BME280;23099;42.636;23.198;2023-11-21T09:48:02;91552.66;;;8.94;80.03
37206;BME280;23099;42.636;23.198;2023-11-21T09:50:31;91559.59;;;9.02;77.84
37206;BME280;23099;42.636;23.198;2023-11-21T09:53:06;91545.63;;;9.12;77.30
37206;BME280;23099;42.636;23.198;2023-11-21T09:55:37;91544.25;;;9.22;78.29
37206;BME280;23099;42.636;23.198;2023-11-21T09:58:06;91536.69;;;9.28;79.11
37206;BME280;23099;42.636;23.198;2023-11-21T10:00:33;91559.00;;;9.46;78.70
37206;BME280;23099;42.636;23.198;2023-11-21T10:03:00;91534.69;;;9.51;76.62
37206;BME280;23099;42.636;23.198;2023-11-21T10:05:29;91548.47;;;9.97;70.17
37206;BME280;23099;42.636;23.198;2023-11-21T10:07:59;91526.78;;;10.43;67.41
37206;BME280;23099;42.636;23.198;2023-11-21T10:10:27;91522.06;;;10.77;66.72
37206;BME280;23099;42.636;23.198;2023-11-21T10:12:55;91512.63;;;10.93;64.59
37206;BME280;23099;42.636;23.198;2023-11-21T10:15:23;91524.88;;;11.02;64.56
37206;BME280;23099;42.636;23.198;2023-11-21T10:17:51;91506.97;;;11.06;65.08
37206;BME280;23099;42.636;23.198;2023-11-21T10:20:19;91520.31;;;11.02;64.20
37206;BME280;23099;42.636;23.198;2023-11-21T10:22:47;91510.03;;;11.11;63.71
37206;BME280;23099;42.636;23.198;2023-11-21T10:25:14;91508.53;;;11.10;61.75
37206;BME280;23099;42.636;23.198;2023-11-21T10:27:42;91505.44;;;11.12;62.32
37206;BME280;23099;42.636;23.198;2023-11-21T10:30:09;91512.34;;;11.09;60.68
37206;BME280;23099;42.636;23.198;2023-11-21T10:32:37;91507.75;;;11.10;62.74
37206;BME280;23099;42.636;23.198;2023-11-21T10:35:05;91506.97;;;11.13;60.88
37206;BME280;23099;42.636;23.198;2023-11-21T10:37:35;91504.28;;;11.06;62.17
37206;BME280;23099;42.636;23.198;2023-11-21T10:40:07;91499.69;;;11.03;61.92
37206;BME280;23099;42.636;23.198;2023-11-21T10:42:34;91497.00;;;11.03;62.06
37206;BME280;23099;42.636;23.198;2023-11-21T10:45:01;91498.50;;;10.93;62.64
37206;BME280;23099;42.636;23.198;2023-11-21T10:47:31;91506.13;;;10.91;61.36
37206;BME280;23099;42.636;23.198;2023-11-21T10:50:00;91494.59;;;10.80;61.96
37206;BME280;23099;42.636;23.198;2023-11-21T10:52:27;91496.13;;;10.81;61.78
37206;BME280;23099;42.636;23.198;2023-11-21T10:54:54;91495.34;;;10.77;62.53
37206;BME280;23099;42.636;23.198;2023-11-21T10:57:25;91479.19;;;10.59;63.18
37206;BME280;23099;42.636;23.198;2023-11-21T10:59:54;91496.00;;;10.59;63.00
37206;BME280;23099;42.636;23.198;2023-11-21T11:02:23;91494.47;;;10.58;62.92
37206;BME280;23099;42.636;23.198;2023-11-21T11:04:53;91481.81;;;10.48;62.63
37206;BME280;23099;42.636;23.198;2023-11-21T11:07:25;91474.13;;;10.43;63.84
37206;BME280;23099;42.636;23.198;2023-11-21T11:09:53;91478.69;;;10.43;64.77
37206;BME280;23099;42.636;23.198;2023-11-21T11:12:21;91471.41;;;10.40;65.42
37206;BME280;23099;42.636;23.198;2023-11-21T11:14:48;91455.41;;;10.36;64.81
37206;BME280;23099;42.636;23.198;2023-11-21T11:17:16;91455.41;;;10.36;66.74
37206;BME280;23099;42.636;23.198;2023-11-21T11:19:46;91446.50;;;10.25;67.50
37206;BME280;23099;42.636;23.198;2023-11-21T11:22:24;91436.59;;;10.22;66.55
37206;BME280;23099;42.636;23.198;2023-11-21T11:25:14;91454.53;;;10.21;67.77
37206;BME280;23099;42.636;23.198;2023-11-21T11:27:54;91443.47;;;10.23;67.13
37206;BME280;23099;42.636;23.198;2023-11-21T11:30:32;91440.81;;;10.23;68.40
37206;BME280;23099;42.636;23.198;2023-11-21T11:33:09;91444.25;;;10.23;67.92
37206;BME280;23099;42.636;23.198;2023-11-21T11:35:43;91457.19;;;10.25;68.26
37206;BME280;23099;42.636;23.198;2023-11-21T11:38:13;91458.38;;;10.24;69.96
37206;BME280;23099;42.636;23.198;2023-11-21T11:40:41;91456.72;;;10.16;69.44
37206;BME280;23099;42.636;23.198;2023-11-21T11:43:09;91460.50;;;10.08;70.18
37206;BME280;23099;42.636;23.198;2023-11-21T11:45:37;91451.28;;;10.02;69.90
37206;BME280;23099;42.636;23.198;2023-11-21T11:48:07;91447.44;;;9.99;71.30
37206;BME280;23099;42.636;23.198;2023-11-21T11:50:34;91453.94;;;10.02;71.60
37206;BME280;23099;42.636;23.198;2023-11-21T11:53:12;91441.28;;;9.91;73.03
37206;BME280;23099;42.636;23.198;2023-11-21T11:55:39;91445.44;;;9.85;75.50
37206;BME280;23099;42.636;23.198;2023-11-21T11:58:07;91451.13;;;9.80;79.17
37206;BME280;23099;42.636;23.198;2023-11-21T12:00:35;91455.94;;;9.68;80.07
37206;BME280;23099;42.636;23.198;2023-11-21T12:03:07;91441.06;;;9.63;81.89
37206;BME280;23099;42.636;23.198;2023-11-21T12:05:35;91443.59;;;9.52;82.57
37206;BME280;23099;42.636;23.198;2023-11-21T12:08:05;91458.47;;;9.50;82.51
37206;BME280;23099;42.636;23.198;2023-11-21T12:10:33;91469.13;;;9.50;82.87
37206;BME280;23099;42.636;23.198;2023-11-21T12:13:01;91457.97;;;9.41;82.37
37206;BME280;23099;42.636;23.198;2023-11-21T12:15:28;91455.69;;;9.43;83.54
37206;BME280;23099;42.636;23.198;2023-11-21T12:17:57;91438.88;;;9.39;82.68
37206;BME280;23099;42.636;23.198;2023-11-21T12:20:25;91439.50;;;9.21;83.98
37206;BME280;23099;42.636;23.198;2023-11-21T12:22:54;91427.56;;;9.12;85.10
37206;BME280;23099;42.636;23.198;2023-11-21T12:25:21;91439.28;;;9.04;89.88
37206;BME280;23099;42.636;23.198;2023-11-21T12:27:49;91448.91;;;8.78;88.95
37206;BME280;23099;42.636;23.198;2023-11-21T12:30:17;91452.09;;;8.61;90.03
37206;BME280;23099;42.636;23.198;2023-11-21T12:32:45;91449.56;;;8.42;90.35
37206;BME280;23099;42.636;23.198;2023-11-21T12:35:15;91451.91;;;8.21;92.26
37206;BME280;23099;42.636;23.198;2023-11-21T12:37:45;91452.25;;;8.19;92.83
37206;BME280;23099;42.636;23.198;2023-11-21T12:40:12;91435.81;;;8.13;94.35
37206;BME280;23099;42.636;23.198;2023-11-21T12:42:40;91431.25;;;8.14;95.04
37206;BME280;23099;42.636;23.198;2023-11-21T12:47:51;91418.16;;;8.02;97.22
37206;BME280;23099;42.636;23.198;2023-11-21T12:50:22;91421.66;;;8.06;97.63
37206;BME280;23099;42.636;23.198;2023-11-21T12:52:52;91417.69;;;7.96;97.99
37206;BME280;23099;42.636;23.198;2023-11-21T12:55:19;91414.88;;;7.86;98.02
37206;BME280;23099;42.636;23.198;2023-11-21T12:57:48;91408.13;;;7.92;96.88